Time;durP1;ratioP1;P1;durP2;ratioP2;P2;SDS_P1;SDS_P2;PMS_P1;PMS_P2;Temp;Humidity;BMP_temperature;BMP_pressure;BME280_temperature;BME280_humidity;BME280_pressure;Samples;Min_cycle;Max_cycle;Signal;HPM_P1;HPM_P2
2021/10/22 00:01:39;;;;;;;9.47;1.23;;;7.70;95.50;;;;;;5039175;28;20025;-82
2021/10/22 00:04:05;;;;;;;8.97;1.90;;;7.70;95.60;;;;;;5055822;28;20029;-82
2021/10/22 00:06:32;;;;;;;11.03;1.00;;;7.70;95.70;;;;;;5056009;28;20045;-82
2021/10/22 00:08:57;;;;;;;8.27;1.00;;;7.70;95.50;;;;;;5055782;28;20086;-82
2021/10/22 00:11:24;;;;;;;7.37;1.03;;;7.70;95.50;;;;;;5056906;28;20033;-82
2021/10/22 00:13:49;;;;;;;7.20;0.80;;;7.80;95.60;;;;;;5055603;28;20045;-82
2021/10/22 00:16:16;;;;;;;8.50;0.90;;;7.70;95.60;;;;;;5056104;28;20477;-80
2021/10/22 00:18:42;;;;;;;6.90;1.00;;;7.70;95.90;;;;;;5057051;28;20029;-82
2021/10/22 00:21:08;;;;;;;8.47;0.63;;;7.60;95.70;;;;;;5038882;28;20389;-82
2021/10/22 00:23:34;;;;;;;9.87;0.93;;;7.70;95.90;;;;;;5038883;28;20040;-82
2021/10/22 00:25:59;;;;;;;11.03;1.33;;;7.70;95.70;;;;;;5038788;28;20056;-83
2021/10/22 00:28:25;;;;;;;8.03;1.20;;;7.60;95.80;;;;;;5038653;28;20116;-82
2021/10/22 00:30:50;;;;;;;6.80;1.37;;;7.60;95.80;;;;;;5038778;28;20021;-81
2021/10/22 00:33:16;;;;;;;6.70;0.90;;;7.60;95.80;;;;;;5056935;28;20492;-82
2021/10/22 00:35:42;;;;;;;6.90;1.30;;;7.50;95.80;;;;;;5055208;28;20064;-81
2021/10/22 00:38:07;;;;;;;4.73;0.80;;;7.60;95.90;;;;;;5038809;28;20112;-81
2021/10/22 00:40:33;;;;;;;10.90;0.97;;;7.60;95.90;;;;;;5039160;28;20384;-83
2021/10/22 00:43:00;;;;;;;8.57;1.10;;;7.60;95.90;;;;;;5056360;28;20469;-82
2021/10/22 00:45:25;;;;;;;5.33;1.13;;;7.70;95.90;;;;;;5038563;28;20052;-81
2021/10/22 00:47:51;;;;;;;10.07;1.00;;;7.60;95.90;;;;;;5038506;28;20588;-82
2021/10/22 00:50:18;;;;;;;13.10;1.23;;;7.50;95.90;;;;;;5056420;28;20105;-82
2021/10/22 00:52:46;;;;;;;9.73;1.53;;;7.50;95.90;;;;;;5038393;28;20127;-83
2021/10/22 00:55:12;;;;;;;14.87;2.33;;;7.60;95.90;;;;;;5056179;28;20028;-81
2021/10/22 00:57:43;;;;;;;13.17;1.13;;;7.60;95.90;;;;;;5054825;28;20021;-81
2021/10/22 01:00:10;;;;;;;6.43;0.90;;;7.50;95.90;;;;;;5055924;28;20025;-81
2021/10/22 01:02:36;;;;;;;15.90;2.07;;;7.50;95.90;;;;;;5054677;28;20488;-81
2021/10/22 01:05:08;;;;;;;7.87;0.90;;;7.50;96.00;;;;;;5054965;28;20040;-82
2021/10/22 01:07:38;;;;;;;9.20;1.10;;;7.40;95.90;;;;;;5038703;28;20025;-83
2021/10/22 01:10:04;;;;;;;6.97;1.00;;;7.40;96.00;;;;;;5054192;28;20050;-83
2021/10/22 01:12:31;;;;;;;11.87;1.37;;;7.40;96.00;;;;;;5061388;28;20024;-82
2021/10/22 01:14:58;;;;;;;13.07;1.53;;;7.40;96.00;;;;;;5073426;28;20149;-81
2021/10/22 01:17:33;;;;;;;9.50;1.50;;;7.30;96.00;;;;;;5074275;28;20506;-82
2021/10/22 01:19:58;;;;;;;;;;;7.30;96.00;;;;;;5074785;28;20028;-80
2021/10/22 01:22:24;;;;;;;9.37;1.30;;;7.30;96.00;;;;;;5057609;28;20019;-81
2021/10/22 01:24:50;;;;;;;10.20;1.83;;;7.20;96.00;;;;;;5074261;28;20048;-81
2021/10/22 01:27:16;;;;;;;9.67;1.17;;;7.30;96.00;;;;;;5074229;28;20031;-81
2021/10/22 01:29:42;;;;;;;12.07;2.17;;;7.20;96.00;;;;;;5074231;28;20024;-82
2021/10/22 01:32:08;;;;;;;9.43;1.70;;;7.20;96.30;;;;;;5074256;28;20369;-82
2021/10/22 01:34:34;;;;;;;9.27;1.07;;;7.20;96.00;;;;;;5074139;28;20075;-83
2021/10/22 01:36:59;;;;;;;9.23;1.47;;;7.20;96.00;;;;;;5074170;28;20035;-81
2021/10/22 01:39:25;;;;;;;13.93;1.90;;;7.10;96.00;;;;;;5074107;28;20119;-83
2021/10/22 01:41:51;;;;;;;10.43;1.63;;;7.10;96.00;;;;;;5057561;28;20064;-81
2021/10/22 01:44:22;;;;;;;10.90;1.53;;;7.10;96.00;;;;;;5041558;28;20051;-81
2021/10/22 01:46:48;;;;;;;10.57;1.20;;;7.10;96.00;;;;;;5069825;28;20028;-81
2021/10/22 01:49:14;;;;;;;15.23;1.80;;;7.00;96.00;;;;;;5085211;28;20028;-82
2021/10/22 01:51:40;;;;;;;12.60;1.50;;;7.00;96.10;;;;;;5085683;28;20515;-80
2021/10/22 01:54:06;;;;;;;17.03;1.97;;;7.00;96.00;;;;;;5068012;28;20033;-81
2021/10/22 01:56:31;;;;;;;12.03;1.30;;;6.90;96.00;;;;;;5061196;28;20060;-81
2021/10/22 01:58:57;;;;;;;9.70;1.20;;;6.90;96.10;;;;;;5075392;28;20035;-81
2021/10/22 02:01:23;;;;;;;12.27;1.63;;;6.90;96.00;;;;;;5058690;28;20028;-83
2021/10/22 02:03:48;;;;;;;20.47;2.03;;;6.90;96.10;;;;;;5075865;28;20468;-81
2021/10/22 02:06:14;;;;;;;9.23;1.13;;;6.90;96.10;;;;;;5075230;28;20434;-81
2021/10/22 02:08:40;;;;;;;9.17;1.30;;;6.80;96.00;;;;;;5074844;28;20111;-82
2021/10/22 02:11:05;;;;;;;10.40;1.40;;;6.80;96.00;;;;;;5040567;28;20048;-81
2021/10/22 02:13:31;;;;;;;14.43;2.07;;;6.80;96.00;;;;;;5073499;28;20064;-83
2021/10/22 02:15:57;;;;;;;10.17;1.43;;;6.80;96.00;;;;;;5073409;28;20064;-82
2021/10/22 02:18:23;;;;;;;13.47;1.60;;;6.80;96.10;;;;;;5073121;28;20038;-83
2021/10/22 02:20:49;;;;;;;9.23;1.70;;;6.80;96.00;;;;;;5072143;28;20064;-83
2021/10/22 02:23:14;;;;;;;8.93;1.20;;;6.90;96.00;;;;;;5072872;28;20488;-83
2021/10/22 02:25:40;;;;;;;20.73;1.73;;;6.80;95.90;;;;;;5073053;28;20054;-81
2021/10/22 02:28:06;;;;;;;15.90;1.80;;;6.80;96.20;;;;;;5072045;28;20480;-82
2021/10/22 02:30:32;;;;;;;10.17;1.77;;;6.80;95.90;;;;;;5056475;28;20039;-83
2021/10/22 02:32:58;;;;;;;7.77;1.50;;;6.90;95.90;;;;;;5039479;28;20032;-82
2021/10/22 02:35:24;;;;;;;12.60;1.50;;;6.80;95.90;;;;;;5056176;28;20035;-82
2021/10/22 02:37:50;;;;;;;10.10;1.10;;;6.70;95.80;;;;;;5052405;28;20033;-81
2021/10/22 02:40:16;;;;;;;7.80;1.00;;;6.80;95.80;;;;;;5073946;28;20033;-82
2021/10/22 02:42:42;;;;;;;10.67;1.27;;;6.70;95.70;;;;;;5055734;28;20024;-83
2021/10/22 02:45:08;;;;;;;7.57;1.30;;;6.70;95.70;;;;;;5073864;28;20025;-82
2021/10/22 02:47:34;;;;;;;10.97;1.30;;;6.70;95.80;;;;;;5072701;28;20658;-83
2021/10/22 02:49:59;;;;;;;9.10;1.50;;;6.70;95.80;;;;;;5053722;28;20098;-82
2021/10/22 02:52:25;;;;;;;13.73;1.50;;;6.70;95.80;;;;;;5051262;28;20715;-82
2021/10/22 02:54:51;;;;;;;14.13;1.23;;;6.70;95.70;;;;;;5035143;28;20029;-83
2021/10/22 02:57:17;;;;;;;9.23;1.43;;;6.70;95.70;;;;;;5052704;28;20037;-82
2021/10/22 02:59:42;;;;;;;15.97;1.87;;;6.70;95.70;;;;;;5052482;28;20068;-83
2021/10/22 03:02:08;;;;;;;14.57;1.53;;;6.70;95.70;;;;;;5035938;28;20039;-82
2021/10/22 03:04:34;;;;;;;13.30;1.93;;;6.80;95.70;;;;;;5035162;28;20504;-81
2021/10/22 03:06:59;;;;;;;13.70;1.60;;;6.70;95.60;;;;;;5052502;28;20495;-82
2021/10/22 03:09:25;;;;;;;10.60;1.40;;;6.70;95.60;;;;;;5052363;28;20085;-84
2021/10/22 03:11:51;;;;;;;12.60;1.27;;;6.70;95.60;;;;;;5036133;28;20032;-83
2021/10/22 03:14:16;;;;;;;11.13;1.37;;;6.70;95.50;;;;;;5035654;28;20045;-83
2021/10/22 03:16:43;;;;;;;9.00;1.63;;;6.70;95.50;;;;;;5035658;28;20056;-81
2021/10/22 03:19:11;;;;;;;8.80;1.47;;;6.70;95.50;;;;;;5035898;28;20547;-80
2021/10/22 03:21:39;;;;;;;11.40;2.20;;;6.70;95.50;;;;;;5053408;28;20044;-82
2021/10/22 03:24:05;;;;;;;9.00;1.53;;;6.70;95.50;;;;;;5035662;28;20032;-83
2021/10/22 03:26:30;;;;;;;10.47;1.97;;;6.60;95.50;;;;;;5035423;28;20033;-82
2021/10/22 03:28:56;;;;;;;11.23;1.80;;;6.70;95.50;;;;;;5052262;28;20454;-81
2021/10/22 03:31:22;;;;;;;8.77;1.70;;;6.60;95.50;;;;;;5035178;28;20458;-81
2021/10/22 03:33:47;;;;;;;8.17;1.47;;;6.60;95.50;;;;;;5052012;28;20028;-84
2021/10/22 03:36:13;;;;;;;11.83;2.30;;;6.60;95.50;;;;;;5038557;28;20044;-82
2021/10/22 03:38:39;;;;;;;12.03;2.27;;;6.60;95.60;;;;;;5064955;28;20033;-81
2021/10/22 03:41:04;;;;;;;13.07;1.93;;;6.60;95.50;;;;;;5068648;28;20028;-81
2021/10/22 03:43:30;;;;;;;13.63;2.63;;;6.60;95.50;;;;;;5053265;28;20029;-82
2021/10/22 03:45:57;;;;;;;10.63;2.20;;;6.60;95.70;;;;;;5068659;28;20436;-83
2021/10/22 03:48:22;;;;;;;14.27;2.43;;;6.70;95.60;;;;;;5068869;28;20512;-81
2021/10/22 03:50:48;;;;;;;15.07;3.43;;;6.60;95.50;;;;;;5068639;28;20033;-81
2021/10/22 03:53:14;;;;;;;14.37;2.50;;;6.50;95.50;;;;;;5052039;28;20032;-81
2021/10/22 03:55:40;;;;;;;8.30;2.13;;;6.50;95.50;;;;;;5051871;28;20466;-83
2021/10/22 03:58:05;;;;;;;10.00;2.40;;;6.50;95.50;;;;;;5051943;28;20025;-83
2021/10/22 04:00:31;;;;;;;11.07;2.63;;;6.50;95.50;;;;;;5051944;28;20029;-81
2021/10/22 04:02:57;;;;;;;12.40;3.23;;;6.50;95.50;;;;;;5068513;28;20033;-81
2021/10/22 04:05:22;;;;;;;12.00;3.13;;;6.50;95.50;;;;;;5051893;28;20056;-80
2021/10/22 04:07:48;;;;;;;12.70;3.47;;;6.50;95.50;;;;;;5052949;28;20057;-83
2021/10/22 04:10:13;;;;;;;14.33;3.13;;;6.50;95.50;;;;;;5051796;28;20036;-81
2021/10/22 04:12:39;;;;;;;13.60;3.00;;;6.50;95.50;;;;;;5051828;28;20118;-82
2021/10/22 04:15:05;;;;;;;18.00;3.30;;;6.40;95.50;;;;;;5053070;28;20077;-84
2021/10/22 04:17:31;;;;;;;16.03;3.33;;;6.50;95.60;;;;;;5051815;28;20060;-82
2021/10/22 04:19:57;;;;;;;13.73;3.63;;;6.50;95.60;;;;;;5050314;28;20110;-81
2021/10/22 04:22:23;;;;;;;14.60;3.60;;;6.50;95.60;;;;;;5068127;28;20036;-82
2021/10/22 04:24:48;;;;;;;11.23;2.80;;;6.50;95.60;;;;;;5052984;28;20037;-82
2021/10/22 04:27:15;;;;;;;11.93;2.73;;;6.50;95.80;;;;;;5071693;28;20040;-76
2021/10/22 04:29:40;;;;;;;18.20;4.10;;;6.50;95.60;;;;;;5038304;28;20029;-76
2021/10/22 04:32:06;;;;;;;14.50;3.20;;;6.50;95.70;;;;;;5071434;28;20586;-77
2021/10/22 04:34:32;;;;;;;14.07;3.03;;;6.50;95.70;;;;;;5055117;28;20037;-76
2021/10/22 04:37:09;;;;;;;17.73;4.53;;;6.60;95.80;;;;;;5038271;28;20025;-76
2021/10/22 04:42:19;;;;;;;15.25;3.50;;;6.60;95.80;;;;;;5072814;28;20039;-81
2021/10/22 04:44:45;;;;;;;8.17;2.50;;;6.70;95.80;;;;;;5056730;28;20121;-81
2021/10/22 04:47:10;;;;;;;17.43;3.40;;;6.70;95.90;;;;;;5075018;28;20048;-82
2021/10/22 04:49:36;;;;;;;11.97;3.60;;;6.70;95.80;;;;;;5041743;28;20540;-82
2021/10/22 04:52:02;;;;;;;10.00;2.70;;;6.80;95.80;;;;;;5041656;28;20392;-82
2021/10/22 04:54:27;;;;;;;14.50;2.53;;;6.80;95.80;;;;;;5076347;28;20029;-82
2021/10/22 04:56:53;;;;;;;14.57;3.17;;;6.90;95.90;;;;;;5076223;28;20032;-81
2021/10/22 04:59:20;;;;;;;19.30;3.30;;;6.90;95.90;;;;;;5074782;28;20040;-81
2021/10/22 05:01:45;;;;;;;17.03;3.50;;;6.90;95.90;;;;;;5072900;28;20028;-83
2021/10/22 05:04:11;;;;;;;10.43;2.47;;;7.00;95.90;;;;;;5037769;28;20163;-83
2021/10/22 05:06:37;;;;;;;14.10;2.67;;;7.00;96.00;;;;;;5046921;28;20472;-77
2021/10/22 05:09:02;;;;;;;16.43;3.33;;;7.20;96.10;;;;;;5054452;28;20022;-77
2021/10/22 05:11:28;;;;;;;16.50;2.70;;;7.20;96.30;;;;;;5021290;28;20025;-75
2021/10/22 05:13:54;;;;;;;25.67;5.40;;;7.10;96.40;;;;;;5037832;28;20052;-76
2021/10/22 05:16:19;;;;;;;14.40;3.60;;;7.30;96.50;;;;;;5054528;28;20480;-76
2021/10/22 05:18:45;;;;;;;24.00;4.33;;;7.20;96.50;;;;;;5037997;28;20083;-78
2021/10/22 05:21:11;;;;;;;14.27;3.37;;;7.30;96.60;;;;;;5054556;28;20032;-76
2021/10/22 05:23:36;;;;;;;14.90;2.90;;;7.10;96.50;;;;;;5054299;28;20481;-76
2021/10/22 05:26:02;;;;;;;17.90;3.50;;;7.30;96.70;;;;;;5065908;28;20025;-76
2021/10/22 05:28:27;;;;;;;11.97;2.87;;;7.30;96.70;;;;;;5054488;28;20040;-77
2021/10/22 05:30:53;;;;;;;11.63;3.00;;;7.30;96.70;;;;;;5053903;28;20048;-76
2021/10/22 05:33:21;;;;;;;17.67;3.07;;;7.30;96.70;;;;;;5054459;28;20040;-76
2021/10/22 05:35:46;;;;;;;16.07;2.70;;;7.30;96.70;;;;;;5053989;28;20063;-76
2021/10/22 05:38:13;;;;;;;18.40;3.50;;;7.30;96.70;;;;;;5045161;28;20060;-76
2021/10/22 05:40:39;;;;;;;16.83;3.23;;;7.30;96.70;;;;;;5054902;28;20452;-76
2021/10/22 05:43:05;;;;;;;13.17;2.97;;;7.30;96.70;;;;;;5065151;28;20048;-77
2021/10/22 05:45:31;;;;;;;13.30;3.87;;;7.30;96.70;;;;;;5053800;28;20090;-76
2021/10/22 05:47:57;;;;;;;13.60;2.50;;;7.30;96.90;;;;;;5073162;28;20528;-76
2021/10/22 05:50:23;;;;;;;9.20;2.87;;;7.20;96.90;;;;;;5058385;28;20496;-76
2021/10/22 05:52:49;;;;;;;14.20;3.07;;;7.20;97.00;;;;;;5059124;28;20037;-75
2021/10/22 05:55:16;;;;;;;12.43;2.30;;;7.20;97.20;;;;;;5027270;28;20032;-75
2021/10/22 05:57:41;;;;;;;12.63;2.63;;;7.20;97.30;;;;;;5056738;28;20112;-75
2021/10/22 06:00:08;;;;;;;13.10;2.03;;;7.30;97.40;;;;;;5073019;28;20099;-77
2021/10/22 06:02:38;;;;;;;19.90;4.73;;;7.30;97.40;;;;;;5073226;28;20059;-76
2021/10/22 06:05:04;;;;;;;12.07;3.50;;;7.30;97.40;;;;;;5072323;28;20338;-75
2021/10/22 06:07:30;;;;;;;12.63;2.43;;;7.40;97.50;;;;;;5073808;28;20020;-75
2021/10/22 06:09:56;;;;;;;13.03;2.97;;;7.40;97.50;;;;;;5039683;28;20028;-76
2021/10/22 06:12:23;;;;;;;12.07;2.53;;;7.40;97.50;;;;;;5039716;28;20865;-77
2021/10/22 06:14:49;;;;;;;15.13;3.63;;;7.50;97.50;;;;;;5056778;28;20484;-76
2021/10/22 06:17:15;;;;;;;13.60;3.23;;;7.50;97.40;;;;;;5072658;28;20086;-76
2021/10/22 06:19:44;;;;;;;13.40;3.23;;;7.60;97.40;;;;;;5071650;28;20024;-76
2021/10/22 06:22:19;;;;;;;18.47;2.93;;;7.60;97.60;;;;;;5072997;28;20032;-74
2021/10/22 06:24:45;;;;;;;18.10;2.93;;;7.70;97.60;;;;;;5057654;28;20033;-76
2021/10/22 06:27:11;;;;;;;16.07;4.03;;;7.80;97.40;;;;;;5039802;28;20027;-76
2021/10/22 06:29:37;;;;;;;16.23;3.47;;;7.70;97.40;;;;;;5056105;28;20460;-75
2021/10/22 06:32:03;;;;;;;20.57;3.50;;;7.60;97.50;;;;;;5046821;28;20056;-77
2021/10/22 06:34:29;;;;;;;11.17;2.40;;;7.80;97.80;;;;;;5055409;28;20036;-77
2021/10/22 06:36:55;;;;;;;15.33;3.63;;;7.70;97.90;;;;;;5056440;28;20083;-77
2021/10/22 06:39:21;;;;;;;19.07;3.20;;;7.70;98.20;;;;;;5055967;28;20029;-76
2021/10/22 06:41:47;;;;;;;20.07;4.07;;;7.70;98.30;;;;;;5056282;28;20035;-75
2021/10/22 06:44:14;;;;;;;15.97;3.43;;;7.70;98.40;;;;;;5056445;28;20027;-76
2021/10/22 06:46:39;;;;;;;11.90;3.73;;;7.70;98.40;;;;;;5059647;28;20033;-75
2021/10/22 06:49:05;;;;;;;19.67;3.07;;;7.70;98.50;;;;;;5052658;28;20056;-75
2021/10/22 06:51:31;;;;;;;16.27;3.97;;;7.70;98.50;;;;;;5053858;28;20032;-76
2021/10/22 06:53:56;;;;;;;15.10;2.90;;;7.70;98.60;;;;;;5055968;28;20488;-76
2021/10/22 06:56:22;;;;;;;17.17;3.93;;;7.70;98.50;;;;;;5072984;28;20024;-75
2021/10/22 06:58:48;;;;;;;13.73;3.60;;;7.70;98.50;;;;;;5055792;28;20388;-76
2021/10/22 07:01:14;;;;;;;22.97;3.87;;;7.70;98.80;;;;;;5027308;28;20029;-76
2021/10/22 07:03:42;;;;;;;19.70;4.40;;;7.80;98.50;;;;;;5072061;28;20036;-77
2021/10/22 07:08:54;;;;;;;13.70;4.03;;;7.80;98.30;;;;;;5052512;28;20068;-74
2021/10/22 07:11:20;;;;;;;15.27;4.53;;;7.90;98.20;;;;;;5051316;28;20016;-76
2021/10/22 07:13:51;;;;;;;14.97;3.67;;;7.90;98.20;;;;;;5035097;28;20033;-76
2021/10/22 07:16:18;;;;;;;17.87;4.37;;;7.90;98.00;;;;;;5036245;28;20025;-77
2021/10/22 07:18:44;;;;;;;17.90;4.27;;;7.90;97.90;;;;;;5019470;28;20025;-75
2021/10/22 07:21:13;;;;;;;15.13;3.57;;;7.90;97.80;;;;;;5053424;28;20036;-77
2021/10/22 07:23:40;;;;;;;10.83;3.33;;;7.90;97.80;;;;;;5052675;28;20032;-75
2021/10/22 07:26:06;;;;;;;17.33;3.70;;;7.90;97.60;;;;;;5053478;28;20048;-76
2021/10/22 07:28:32;;;;;;;12.73;3.47;;;8.00;97.50;;;;;;5035755;28;20063;-76
2021/10/22 07:30:57;;;;;;;18.63;3.67;;;7.90;97.50;;;;;;5035957;28;20029;-76
2021/10/22 07:33:23;;;;;;;23.33;4.70;;;8.00;97.30;;;;;;5035701;28;20028;-76
2021/10/22 07:35:49;;;;;;;13.90;3.77;;;7.90;97.40;;;;;;5018804;28;20187;-77
2021/10/22 07:38:15;;;;;;;15.00;3.37;;;8.00;97.50;;;;;;5052079;28;20488;-76
2021/10/22 07:40:45;;;;;;;14.30;3.43;;;8.10;97.60;;;;;;5052201;28;20123;-77
2021/10/22 07:43:11;;;;;;;12.93;3.53;;;8.10;97.50;;;;;;5053050;28;20024;-76
2021/10/22 07:45:37;;;;;;;12.70;3.43;;;8.10;97.50;;;;;;5052339;28;20412;-77
2021/10/22 07:48:04;;;;;;;15.43;3.40;;;8.20;97.30;;;;;;5051846;28;20021;-78
2021/10/22 07:50:30;;;;;;;16.23;2.70;;;8.30;97.40;;;;;;5052015;28;20075;-77
2021/10/22 07:52:55;;;;;;;11.17;2.73;;;8.40;97.20;;;;;;5035401;28;20473;-76
2021/10/22 07:55:22;;;;;;;19.87;3.73;;;8.40;97.20;;;;;;5051894;28;20029;-77
2021/10/22 07:57:48;;;;;;;13.17;2.87;;;8.50;97.10;;;;;;5051765;28;20489;-78
2021/10/22 08:00:13;;;;;;;10.43;2.67;;;8.50;97.10;;;;;;5035307;28;20045;-78
2021/10/22 08:02:42;;;;;;;14.13;2.63;;;8.60;97.10;;;;;;5034969;28;20025;-76
2021/10/22 08:05:09;;;;;;;13.83;2.80;;;8.60;96.90;;;;;;5036049;28;20060;-78
2021/10/22 08:07:38;;;;;;;15.07;3.03;;;8.70;96.90;;;;;;5035577;28;20025;-77
2021/10/22 08:10:05;;;;;;;11.23;3.40;;;8.80;96.80;;;;;;5035981;28;20025;-78
2021/10/22 08:12:31;;;;;;;10.63;2.63;;;8.80;96.90;;;;;;5051620;28;20029;-77
2021/10/22 08:14:57;;;;;;;15.23;2.90;;;8.90;96.50;;;;;;5051868;28;20481;-77
2021/10/22 08:17:23;;;;;;;13.80;3.10;;;9.00;96.40;;;;;;5035591;28;20021;-77
2021/10/22 08:19:53;;;;;;;12.77;2.37;;;9.00;96.20;;;;;;5056040;28;20615;-76
2021/10/22 08:22:29;;;;;;;11.27;3.10;;;9.10;96.30;;;;;;5055539;28;20054;-78
2021/10/22 08:25:04;;;;;;;13.20;2.63;;;9.10;96.00;;;;;;5039544;28;20021;-77
2021/10/22 08:27:34;;;;;;;;;;;9.20;95.80;;;;;;5056133;28;20028;-77
2021/10/22 08:30:00;;;;;;;10.67;2.80;;;9.20;95.50;;;;;;5066028;28;19908;-78
2021/10/22 08:32:28;;;;;;;10.37;2.33;;;9.20;95.60;;;;;;5071707;28;20385;-77
2021/10/22 08:34:53;;;;;;;17.63;2.77;;;9.20;95.50;;;;;;5055867;28;20525;-78
2021/10/22 08:37:19;;;;;;;13.53;2.37;;;9.10;95.20;;;;;;5038671;28;20104;-77
2021/10/22 08:39:46;;;;;;;11.33;3.57;;;9.30;95.70;;;;;;5038473;28;20036;-75
2021/10/22 08:42:14;;;;;;;16.40;3.10;;;9.20;95.20;;;;;;5054883;28;20028;-77
2021/10/22 08:44:42;;;;;;;18.67;3.23;;;9.30;95.30;;;;;;5056121;28;20389;-77
2021/10/22 08:47:08;;;;;;;14.37;2.53;;;9.30;95.30;;;;;;5054932;28;20021;-79
2021/10/22 08:49:34;;;;;;;8.57;2.50;;;9.50;95.20;;;;;;5056198;28;20055;-78
2021/10/22 08:52:02;;;;;;;10.70;2.43;;;9.60;95.10;;;;;;5038190;28;20041;-77
2021/10/22 08:54:30;;;;;;;15.37;2.70;;;9.60;94.90;;;;;;5054741;28;20388;-77
2021/10/22 08:56:56;;;;;;;13.37;2.30;;;9.60;94.90;;;;;;5055844;28;20031;-77
2021/10/22 08:59:21;;;;;;;19.13;2.70;;;9.70;94.80;;;;;;5021573;28;20033;-77
2021/10/22 09:02:22;;;;;;;15.50;3.30;;;9.70;94.80;;;;;;5037646;28;20044;-76
2021/10/22 09:04:49;;;;;;;10.50;2.67;;;9.80;94.80;;;;;;5037866;28;20092;-78
2021/10/22 09:07:17;;;;;;;13.40;2.47;;;9.80;94.60;;;;;;5037854;28;20112;-77
2021/10/22 09:10:02;;;;;;;11.83;2.63;;;9.90;94.70;;;;;;5054392;28;20018;-76
2021/10/22 09:12:53;;;;;;;11.03;2.50;;;10.00;94.40;;;;;;5039936;28;20388;-76
2021/10/22 09:15:27;;;;;;;11.80;2.13;;;10.10;94.40;;;;;;5054436;28;20041;-77
2021/10/22 09:17:56;;;;;;;14.32;2.25;;;10.10;94.30;;;;;;5055758;28;20044;-77
2021/10/22 09:20:23;;;;;;;11.77;2.17;;;10.20;94.10;;;;;;5055610;28;20021;-77
2021/10/22 09:22:50;;;;;;;11.83;1.83;;;10.20;94.00;;;;;;5055361;28;20112;-76
2021/10/22 09:25:21;;;;;;;13.30;1.83;;;10.30;93.90;;;;;;5054147;28;20052;-78
2021/10/22 09:27:58;;;;;;;10.53;2.30;;;10.40;93.70;;;;;;5054246;28;20108;-78
2021/10/22 09:30:23;;;;;;;16.93;2.03;;;10.40;93.60;;;;;;5054948;28;20023;-77
2021/10/22 09:32:51;;;;;;;13.67;2.20;;;10.50;93.60;;;;;;5055896;28;20029;-76
2021/10/22 09:35:33;;;;;;;11.50;1.70;;;10.60;93.60;;;;;;5037974;28;20494;-76
2021/10/22 09:38:18;;;;;;;8.85;2.08;;;10.60;93.20;;;;;;5055408;28;20029;-76
2021/10/22 09:41:04;;;;;;;9.88;1.83;;;10.60;93.20;;;;;;5054072;28;20067;-79
2021/10/22 09:43:34;;;;;;;11.85;1.98;;;10.60;93.10;;;;;;5053839;28;20059;-77
2021/10/22 09:46:16;;;;;;;12.47;1.77;;;10.50;93.00;;;;;;5054183;28;20104;-76
2021/10/22 09:48:46;;;;;;;13.35;1.70;;;10.60;93.30;;;;;;5053600;28;20381;-78
2021/10/22 09:51:23;;;;;;;14.17;2.07;;;10.60;93.30;;;;;;5070280;28;20484;-79
2021/10/22 09:53:50;;;;;;;12.00;1.67;;;10.70;93.30;;;;;;5070013;28;20508;-78
2021/10/22 09:56:26;;;;;;;9.82;1.42;;;10.60;92.90;;;;;;5053151;28;20021;-77
2021/10/22 09:59:04;;;;;;;11.77;1.80;;;10.60;93.00;;;;;;5020600;28;20104;-77
2021/10/22 10:01:37;;;;;;;15.33;1.90;;;10.60;93.00;;;;;;5053604;28;20025;-76
2021/10/22 10:04:07;;;;;;;11.57;2.17;;;10.60;92.90;;;;;;5053704;28;20017;-79
2021/10/22 10:06:37;;;;;;;9.57;2.13;;;10.60;93.10;;;;;;5053257;28;20017;-75
2021/10/22 10:09:06;;;;;;;11.43;1.33;;;10.60;93.20;;;;;;5054708;28;20100;-77
2021/10/22 10:11:32;;;;;;;15.63;2.00;;;10.60;93.40;;;;;;5056343;28;20052;-76
2021/10/22 10:14:00;;;;;;;14.70;1.77;;;10.60;93.30;;;;;;5074189;28;20041;-78
2021/10/22 10:16:27;;;;;;;12.60;1.85;;;10.70;93.40;;;;;;5056623;28;20025;-77
2021/10/22 10:18:55;;;;;;;16.47;2.03;;;10.70;93.70;;;;;;5072953;28;20024;-77
2021/10/22 10:21:23;;;;;;;7.83;1.57;;;10.60;94.10;;;;;;5072927;28;20070;-79
2021/10/22 10:23:51;;;;;;;9.40;1.30;;;10.60;94.60;;;;;;5074313;28;20529;-77
2021/10/22 10:26:28;;;;;;;15.73;2.43;;;10.50;94.70;;;;;;5072882;28;20070;-77
2021/10/22 10:28:55;;;;;;;13.17;1.63;;;10.50;95.20;;;;;;5074024;28;20102;-79
2021/10/22 10:31:57;;;;;;;25.27;3.13;;;10.40;95.50;;;;;;5056232;28;20427;-77
2021/10/22 10:34:37;;;;;;;12.70;2.10;;;10.30;96.50;;;;;;5062825;28;20029;-80
2021/10/22 10:37:05;;;;;;;17.67;1.77;;;10.10;97.10;;;;;;5072629;28;20373;-76
2021/10/22 10:39:46;;;;;;;12.07;1.87;;;10.00;97.70;;;;;;5056474;28;20376;-77
2021/10/22 10:42:35;;;;;;;20.17;2.93;;;9.80;98.00;;;;;;5072964;28;20029;-80
2021/10/22 10:45:36;;;;;;;17.03;2.37;;;9.80;98.60;;;;;;5072675;28;20024;-79
2021/10/22 10:48:19;;;;;;;12.67;2.43;;;9.70;98.80;;;;;;5074349;28;20111;-79
2021/10/22 10:51:04;;;;;;;13.50;2.20;;;9.70;99.10;;;;;;5070661;28;20056;-77
2021/10/22 10:53:35;;;;;;;8.77;2.00;;;9.60;99.30;;;;;;5074055;28;20024;-78
2021/10/22 10:56:06;;;;;;;16.50;3.13;;;9.70;99.70;;;;;;5072461;28;20449;-77
2021/10/22 10:58:44;;;;;;;11.80;1.83;;;9.80;99.90;;;;;;5072792;28;20460;-77
2021/10/22 11:01:29;;;;;;;12.13;1.77;;;10.10;99.90;;;;;;5072471;28;20389;-77
2021/10/22 11:03:58;;;;;;;12.57;2.10;;;10.30;99.90;;;;;;5073775;28;20095;-78
2021/10/22 11:06:49;;;;;;;24.00;2.53;;;10.30;99.90;;;;;;5039635;28;20028;-76
2021/10/22 11:09:28;;;;;;;16.17;1.70;;;10.40;99.60;;;;;;5072245;28;20492;-77
2021/10/22 11:11:59;;;;;;;13.40;2.13;;;10.30;99.50;;;;;;5040999;28;20031;-78
2021/10/22 11:14:25;;;;;;;11.53;1.83;;;10.30;99.60;;;;;;5072412;28;20499;-78
2021/10/22 11:16:54;;;;;;;14.47;2.40;;;10.40;99.50;;;;;;5073636;28;20035;-78
2021/10/22 11:19:27;;;;;;;14.60;2.47;;;10.40;99.50;;;;;;5073564;28;20035;-79
2021/10/22 11:21:58;;;;;;;11.52;1.30;;;10.40;99.40;;;;;;5073432;28;20031;-79
2021/10/22 11:24:25;;;;;;;22.07;3.67;;;10.60;99.90;;;;;;5055407;28;20025;-80
2021/10/22 11:27:16;;;;;;;12.60;1.35;;;11.20;99.90;;;;;;5072402;28;20377;-79
2021/10/22 11:29:45;;;;;;;11.80;1.42;;;11.90;99.90;;;;;;5058722;28;20028;-83
2021/10/22 11:32:16;;;;;;;8.85;1.25;;;12.50;98.50;;;;;;5073489;28;20060;-79
2021/10/22 11:35:14;;;;;;;8.45;0.90;;;13.00;96.40;;;;;;5073421;28;20491;-79
2021/10/22 11:37:40;;;;;;;10.60;1.50;;;13.60;93.70;;;;;;5023016;28;20101;-80
2021/10/22 11:40:10;;;;;;;10.55;1.33;;;14.10;92.90;;;;;;5072006;28;20029;-81
2021/10/22 11:42:38;;;;;;;11.20;1.35;;;14.30;91.70;;;;;;5072092;28;20112;-78
2021/10/22 11:45:07;;;;;;;7.30;1.10;;;14.50;91.60;;;;;;5074233;28;20031;-79
2021/10/22 11:47:41;;;;;;;12.18;1.30;;;14.80;90.70;;;;;;5072325;28;20009;-77
2021/10/22 11:50:11;;;;;;;7.40;1.55;;;15.20;90.30;;;;;;5072161;28;20021;-85
2021/10/22 11:52:37;;;;;;;8.25;1.27;;;15.40;87.90;;;;;;5073089;28;20025;-77
2021/10/22 11:55:04;;;;;;;9.38;1.23;;;15.30;84.90;;;;;;5059740;28;20369;-78
2021/10/22 11:57:34;;;;;;;12.38;1.20;;;15.00;83.00;;;;;;5059569;28;20456;-77
2021/10/22 12:00:00;;;;;;;8.63;1.48;;;14.80;83.90;;;;;;5059443;28;20035;-77
2021/10/22 12:02:27;;;;;;;6.35;0.80;;;14.50;82.50;;;;;;5076048;28;20111;-80
2021/10/22 12:05:00;;;;;;;7.30;1.00;;;14.30;82.50;;;;;;5059201;28;20033;-78
2021/10/22 12:07:38;;;;;;;6.70;0.90;;;14.30;84.00;;;;;;5076156;28;20081;-79
2021/10/22 12:10:06;;;;;;;7.47;1.17;;;14.70;84.50;;;;;;5076379;28;20345;-79
2021/10/22 12:12:36;;;;;;;7.60;1.10;;;15.00;82.10;;;;;;5076036;28;20056;-80
2021/10/22 12:15:04;;;;;;;8.60;0.93;;;15.00;79.80;;;;;;5075319;28;20036;-80
2021/10/22 12:17:30;;;;;;;10.55;1.38;;;14.80;79.60;;;;;;5075680;28;20028;-79
2021/10/22 12:19:58;;;;;;;7.22;1.00;;;14.70;80.90;;;;;;5075956;28;20028;-79
2021/10/22 12:22:27;;;;;;;9.23;1.08;;;14.60;81.20;;;;;;5075648;28;20060;-77
2021/10/22 12:24:56;;;;;;;12.85;1.67;;;14.50;81.90;;;;;;5076767;28;20020;-78
2021/10/22 12:27:25;;;;;;;14.70;1.40;;;14.40;81.80;;;;;;5075615;28;20037;-76
2021/10/22 12:29:53;;;;;;;7.22;1.17;;;14.30;82.30;;;;;;5075834;28;20020;-82
2021/10/22 12:32:54;;;;;;;13.00;1.20;;;14.10;82.80;;;;;;5076502;28;20021;-85
2021/10/22 12:35:35;;;;;;;6.85;0.93;;;14.00;83.60;;;;;;5072981;28;20067;-84
2021/10/22 12:38:06;;;;;;;11.00;1.00;;;13.90;82.50;;;;;;5075673;28;20484;-83
2021/10/22 12:40:51;;;;;;;10.02;1.52;;;13.80;82.30;;;;;;5075665;28;20370;-84
2021/10/22 12:43:31;;;;;;;11.02;1.42;;;13.60;82.70;;;;;;5075653;28;20119;-85
2021/10/22 12:46:03;;;;;;;12.60;1.85;;;13.40;83.80;;;;;;5076389;28;20078;-81
2021/10/22 12:48:46;;;;;;;11.10;1.35;;;13.30;85.00;;;;;;5075332;28;20020;-80
2021/10/22 12:51:14;;;;;;;13.75;1.08;;;13.20;86.30;;;;;;5074740;28;20354;-78
2021/10/22 12:53:42;;;;;;;7.43;1.10;;;13.10;87.20;;;;;;5075028;28;20484;-78
2021/10/22 12:56:09;;;;;;;9.15;2.03;;;13.20;87.80;;;;;;5058756;28;20047;-81
2021/10/22 12:58:37;;;;;;;14.30;1.08;;;13.20;88.10;;;;;;5074970;28;20020;-79
2021/10/22 13:01:15;;;;;;;15.57;1.38;;;13.20;87.90;;;;;;5075029;28;20073;-81